Terminal Aerodrome Forecast
Issued by NWS Wilmington, NC

Home | Current Version | Previous Version | Text Only | Print | Product List | Glossary On
Versions: 1 2 3 4 5 6 7 8 9 10 11 12 13 14 15 16 17 18 19 20 21 22 23 24 25 26
000
FTUS42 KILM 271407 CCA
TAFILM
TAF COR
KILM 271407Z 2714/2812 24008KT 6SM BR BKN013
     FM271600 25010KT 6SM -SHRA BKN016
     FM271800 34011G18KT 5SM -RA BR BKN012
     FM272100 35012G20KT 6SM -RA BKN008 OVC012
     FM272300 36012KT P6SM BKN014=

USA.gov is the U.S. government's official web portal to all federal, state and local government web resources and services.